createdAt,value
2018-08-12T00:00:58.871Z,1017.60
2018-08-12T00:01:59.524Z,1017.56
2018-08-12T00:02:58.859Z,1017.60
2018-08-12T00:03:58.793Z,1017.56
2018-08-12T00:04:59.524Z,1017.55
2018-08-12T00:05:58.735Z,1017.57
2018-08-12T00:06:58.711Z,1017.54
2018-08-12T00:07:58.742Z,1017.53
2018-08-12T00:08:59.529Z,1017.53
2018-08-12T00:09:58.634Z,1017.55
2018-08-12T00:10:58.606Z,1017.56
2018-08-12T00:11:59.526Z,1017.52
2018-08-12T00:12:58.598Z,1017.52
2018-08-12T00:13:58.517Z,1017.50
2018-08-12T00:14:58.582Z,1017.50
2018-08-12T00:15:58.470Z,1017.50
2018-08-12T00:16:58.440Z,1017.54
2018-08-12T00:17:58.414Z,1017.49
2018-08-12T00:18:58.576Z,1017.50
2018-08-12T00:19:58.410Z,1017.52
2018-08-12T00:20:58.339Z,1017.51
2018-08-12T00:21:59.037Z,1017.49
2018-08-12T00:22:58.273Z,1017.50
2018-08-12T00:23:58.306Z,1017.49
2018-08-12T00:24:58.229Z,1017.46
2018-08-12T00:25:58.196Z,1017.43
2018-08-12T00:26:59.025Z,1017.41
2018-08-12T00:27:58.161Z,1017.42
2018-08-12T00:28:58.171Z,1017.37
2018-08-12T00:29:59.032Z,1017.37
2018-08-12T00:30:58.062Z,1017.37
2018-08-12T00:31:58.036Z,1017.40
2018-08-12T00:32:58.013Z,1017.41
2018-08-12T00:33:58.088Z,1017.43
2018-08-12T00:34:57.999Z,1017.42
2018-08-12T00:35:58.533Z,1017.39
2018-08-12T00:36:57.898Z,1017.38
2018-08-12T00:37:57.873Z,1017.44
2018-08-12T00:38:57.856Z,1017.42
2018-08-12T00:39:57.862Z,1017.40
2018-08-12T00:40:57.791Z,1017.44
2018-08-12T00:41:58.535Z,1017.44
2018-08-12T00:42:57.735Z,1017.44
2018-08-12T00:43:57.708Z,1017.45
2018-08-12T00:44:58.086Z,1017.44
2018-08-12T00:45:57.655Z,1017.48
2018-08-12T00:46:57.626Z,1017.43
2018-08-12T00:47:57.619Z,1017.42
2018-08-12T00:48:58.539Z,1017.39
2018-08-12T00:49:57.587Z,1017.39
2018-08-12T00:50:57.520Z,1017.39
2018-08-12T00:51:58.042Z,1017.33
2018-08-12T00:52:57.459Z,1017.35
2018-08-12T00:53:57.449Z,1017.36
2018-08-12T00:54:57.596Z,1017.34
2018-08-12T00:55:57.377Z,1017.33
2018-08-12T00:56:57.355Z,1017.32
2018-08-12T00:57:57.327Z,1017.33
2018-08-12T00:58:58.035Z,1017.38
2018-08-12T00:59:57.319Z,1017.38
2018-08-12T01:00:57.244Z,1017.37
2018-08-12T01:01:58.035Z,1017.36
2018-08-12T01:02:57.184Z,1017.38
2018-08-12T01:03:58.089Z,1017.35
2018-08-12T01:04:57.179Z,1017.36
2018-08-12T01:05:57.174Z,1017.37
2018-08-12T01:06:57.098Z,1017.34
2018-08-12T01:07:58.046Z,1017.32
2018-08-12T01:08:57.030Z,1017.30
2018-08-12T01:09:56.994Z,1017.35
2018-08-12T01:10:57.081Z,1017.31
2018-08-12T01:11:57.538Z,1017.28
2018-08-12T01:12:56.911Z,1017.32
2018-08-12T01:13:57.538Z,1017.34
2018-08-12T01:14:56.868Z,1017.36
2018-08-12T01:15:57.092Z,1017.33
2018-08-12T01:16:56.800Z,1017.31
2018-08-12T01:17:56.776Z,1017.31
2018-08-12T01:18:57.560Z,1017.34
2018-08-12T01:19:56.717Z,1017.35
2018-08-12T01:20:56.749Z,1017.33
2018-08-12T01:21:56.666Z,1017.32
2018-08-12T01:22:56.635Z,1017.28
2018-08-12T01:23:56.610Z,1017.30
2018-08-12T01:24:56.585Z,1017.32
2018-08-12T01:25:56.597Z,1017.33
2018-08-12T01:26:56.527Z,1017.34
2018-08-12T01:27:56.549Z,1017.31
2018-08-12T01:28:56.468Z,1017.35
2018-08-12T01:29:56.443Z,1017.30
2018-08-12T01:30:56.475Z,1017.31
2018-08-12T01:31:56.389Z,1017.29
2018-08-12T01:32:56.403Z,1017.32
2018-08-12T01:33:57.044Z,1017.35
2018-08-12T01:34:56.303Z,1017.33
2018-08-12T01:35:56.393Z,1017.36
2018-08-12T01:36:57.047Z,1017.39
2018-08-12T01:37:56.282Z,1017.39
2018-08-12T01:38:56.198Z,1017.33
2018-08-12T01:39:56.161Z,1017.33
2018-08-12T01:40:57.039Z,1017.36
2018-08-12T01:41:56.169Z,1017.37
2018-08-12T01:42:56.079Z,1017.38
2018-08-12T01:43:57.040Z,1017.36
2018-08-12T01:44:56.028Z,1017.38
2018-08-12T01:45:56.539Z,1017.36
2018-08-12T01:46:56.036Z,1017.38
2018-08-12T01:47:55.994Z,1017.37
2018-08-12T01:48:56.539Z,1017.36
2018-08-12T01:49:55.904Z,1017.31
2018-08-12T01:50:56.109Z,1017.32
2018-08-12T01:51:55.829Z,1017.30
2018-08-12T01:52:55.819Z,1017.34
2018-08-12T01:53:55.779Z,1017.30
2018-08-12T01:54:55.761Z,1017.33
2018-08-12T01:55:56.106Z,1017.31
2018-08-12T01:56:55.705Z,1017.29
2018-08-12T01:57:55.663Z,1017.28
2018-08-12T01:58:56.541Z,1017.27
2018-08-12T01:59:55.669Z,1017.30
2018-08-12T02:00:55.583Z,1017.28
2018-08-12T02:01:55.567Z,1017.29
2018-08-12T02:02:55.598Z,1017.28
2018-08-12T02:03:55.499Z,1017.26
2018-08-12T02:04:55.463Z,1017.31
2018-08-12T02:05:55.443Z,1017.23
2018-08-12T02:06:56.046Z,1017.21
2018-08-12T02:07:55.427Z,1017.23
2018-08-12T02:08:55.408Z,1017.22
2018-08-12T02:09:55.333Z,1017.24
2018-08-12T02:10:55.298Z,1017.27
2018-08-12T02:11:55.285Z,1017.23
2018-08-12T02:12:55.243Z,1017.25
2018-08-12T02:13:55.255Z,1017.24
2018-08-12T02:14:55.261Z,1017.25
2018-08-12T02:15:55.162Z,1017.26
2018-08-12T02:16:55.132Z,1017.22
2018-08-12T02:17:55.113Z,1017.26
2018-08-12T02:18:55.084Z,1017.25
2018-08-12T02:19:55.097Z,1017.26
2018-08-12T02:20:55.034Z,1017.29
2018-08-12T02:21:55.042Z,1017.29
2018-08-12T02:22:54.963Z,1017.32
2018-08-12T02:23:54.949Z,1017.27
2018-08-12T02:24:54.910Z,1017.28
2018-08-12T02:25:54.883Z,1017.29
2018-08-12T02:26:54.894Z,1017.28
2018-08-12T02:27:54.825Z,1017.28
2018-08-12T02:28:54.797Z,1017.24
2018-08-12T02:29:54.796Z,1017.27
2018-08-12T02:30:54.748Z,1017.24
2018-08-12T02:31:54.761Z,1017.23
2018-08-12T02:32:54.711Z,1017.24
2018-08-12T02:33:54.657Z,1017.25
2018-08-12T02:34:54.630Z,1017.24
2018-08-12T02:35:54.649Z,1017.21
2018-08-12T02:36:54.629Z,1017.21
2018-08-12T02:37:54.544Z,1017.23
2018-08-12T02:38:54.517Z,1017.23
2018-08-12T02:39:54.494Z,1017.22
2018-08-12T02:40:55.055Z,1017.22
2018-08-12T02:41:54.520Z,1017.20
2018-08-12T02:42:54.409Z,1017.19
2018-08-12T02:43:54.374Z,1017.14
2018-08-12T02:44:55.051Z,1017.12
2018-08-12T02:45:54.334Z,1017.08
2018-08-12T02:46:54.338Z,1017.04
2018-08-12T02:47:54.268Z,1017.05
2018-08-12T02:48:55.052Z,1017.05
2018-08-12T02:49:54.209Z,1017.04
2018-08-12T02:50:54.177Z,1017.12
2018-08-12T02:51:54.207Z,1017.10
2018-08-12T02:52:54.180Z,1017.15
2018-08-12T02:53:54.095Z,1017.14
2018-08-12T02:54:54.081Z,1017.14
2018-08-12T02:55:54.090Z,1017.10
2018-08-12T02:56:54.007Z,1017.13
2018-08-12T02:57:54.028Z,1017.11
2018-08-12T02:58:53.977Z,1017.08
2018-08-12T02:59:53.926Z,1017.10
2018-08-12T03:00:53.920Z,1017.09
2018-08-12T03:01:53.892Z,1017.12
2018-08-12T03:02:53.959Z,1017.12
2018-08-12T03:03:53.812Z,1017.10
2018-08-12T03:04:53.788Z,1017.07
2018-08-12T03:05:53.755Z,1017.07
2018-08-12T03:06:53.764Z,1017.03
2018-08-12T03:07:53.770Z,1017.04
2018-08-12T03:08:53.671Z,1017.08
2018-08-12T03:09:53.649Z,1017.10
2018-08-12T03:10:53.613Z,1017.12
2018-08-12T03:11:53.594Z,1017.13
2018-08-12T03:12:53.611Z,1017.16
2018-08-12T03:13:53.534Z,1017.16
2018-08-12T03:14:53.507Z,1017.17
2018-08-12T03:15:53.481Z,1017.17
2018-08-12T03:16:54.065Z,1017.19
2018-08-12T03:17:53.465Z,1017.18
2018-08-12T03:18:53.439Z,1017.18
2018-08-12T03:19:53.366Z,1017.20
2018-08-12T03:20:53.330Z,1017.17
2018-08-12T03:21:53.310Z,1017.22
2018-08-12T03:22:53.304Z,1017.20
2018-08-12T03:23:53.304Z,1017.24
2018-08-12T03:24:53.264Z,1017.27
2018-08-12T03:25:53.194Z,1017.29
2018-08-12T03:26:53.163Z,1017.33
2018-08-12T03:27:53.185Z,1017.31
2018-08-12T03:28:53.157Z,1017.30
2018-08-12T03:29:54.090Z,1017.33
2018-08-12T03:30:53.084Z,1017.24
2018-08-12T03:31:53.021Z,1017.26
2018-08-12T03:32:52.997Z,1017.25
2018-08-12T03:33:52.979Z,1017.23
2018-08-12T03:34:52.995Z,1017.26
2018-08-12T03:35:52.912Z,1017.25
2018-08-12T03:36:52.881Z,1017.23
2018-08-12T03:37:52.856Z,1017.26
2018-08-12T03:38:52.830Z,1017.27
2018-08-12T03:39:52.844Z,1017.26
2018-08-12T03:40:52.775Z,1017.26
2018-08-12T03:41:52.748Z,1017.23
2018-08-12T03:42:52.714Z,1017.21
2018-08-12T03:43:52.688Z,1017.26
2018-08-12T03:44:53.115Z,1017.25
2018-08-12T03:45:52.628Z,1017.29
2018-08-12T03:46:52.816Z,1017.29
2018-08-12T03:47:52.571Z,1017.32
2018-08-12T03:48:52.594Z,1017.32
2018-08-12T03:49:52.522Z,1017.31
2018-08-12T03:50:52.495Z,1017.28
2018-08-12T03:51:52.504Z,1017.29
2018-08-12T03:52:52.434Z,1017.26
2018-08-12T03:53:52.404Z,1017.26
2018-08-12T03:54:52.374Z,1017.28
2018-08-12T03:55:52.351Z,1017.28
2018-08-12T03:56:52.367Z,1017.30
2018-08-12T03:57:52.303Z,1017.32
2018-08-12T03:58:52.313Z,1017.30
2018-08-12T03:59:52.242Z,1017.30
2018-08-12T04:00:52.624Z,1017.31
2018-08-12T04:01:52.183Z,1017.27
2018-08-12T04:02:52.153Z,1017.31
2018-08-12T04:03:52.178Z,1017.30
2018-08-12T04:04:52.102Z,1017.27
2018-08-12T04:05:52.072Z,1017.30
2018-08-12T04:06:52.038Z,1017.30
2018-08-12T04:07:52.024Z,1017.33
2018-08-12T04:08:52.043Z,1017.32
2018-08-12T04:09:51.995Z,1017.33
2018-08-12T04:10:51.930Z,1017.32
2018-08-12T04:11:51.940Z,1017.33
2018-08-12T04:12:51.873Z,1017.32
2018-08-12T04:13:51.850Z,1017.32
2018-08-12T04:14:51.820Z,1017.31
2018-08-12T04:15:51.788Z,1017.32
2018-08-12T04:16:51.817Z,1017.37
2018-08-12T04:17:51.732Z,1017.35
2018-08-12T04:18:51.720Z,1017.33
2018-08-12T04:19:51.677Z,1017.34
2018-08-12T04:20:51.649Z,1017.33
2018-08-12T04:21:51.670Z,1017.33
2018-08-12T04:22:51.605Z,1017.32
2018-08-12T04:23:51.572Z,1017.29
2018-08-12T04:24:51.549Z,1017.31
2018-08-12T04:25:51.562Z,1017.30
2018-08-12T04:26:51.487Z,1017.29
2018-08-12T04:27:51.460Z,1017.25
2018-08-12T04:28:51.430Z,1017.25
2018-08-12T04:29:51.408Z,1017.29
2018-08-12T04:30:51.430Z,1017.27
2018-08-12T04:31:51.351Z,1017.28
2018-08-12T04:32:51.370Z,1017.30
2018-08-12T04:33:51.301Z,1017.29
2018-08-12T04:34:51.277Z,1017.29
2018-08-12T04:35:51.260Z,1017.28
2018-08-12T04:36:51.225Z,1017.30
2018-08-12T04:37:51.233Z,1017.25
2018-08-12T04:38:51.157Z,1017.25
2018-08-12T04:39:51.143Z,1017.26
2018-08-12T04:40:51.105Z,1017.27
2018-08-12T04:41:51.081Z,1017.27
2018-08-12T04:42:51.103Z,1017.29
2018-08-12T04:43:51.020Z,1017.24
2018-08-12T04:44:50.993Z,1017.26
2018-08-12T04:45:51.026Z,1017.25
2018-08-12T04:46:50.985Z,1017.26
2018-08-12T04:47:50.915Z,1017.23
2018-08-12T04:48:50.889Z,1017.24
2018-08-12T04:49:50.858Z,1017.28
2018-08-12T04:50:50.838Z,1017.25
2018-08-12T04:51:50.861Z,1017.29
2018-08-12T04:52:50.780Z,1017.29
2018-08-12T04:53:50.750Z,1017.26
2018-08-12T04:54:50.762Z,1017.23
2018-08-12T04:55:50.697Z,1017.24
2018-08-12T04:56:50.732Z,1017.21
2018-08-12T04:57:50.643Z,1017.18
2018-08-12T04:58:50.615Z,1017.17
2018-08-12T04:59:50.604Z,1017.18
2018-08-12T05:00:50.563Z,1017.18
2018-08-12T05:01:50.592Z,1017.17
2018-08-12T05:02:50.502Z,1017.20
2018-08-12T05:03:50.480Z,1017.15
2018-08-12T05:04:50.452Z,1017.15
2018-08-12T05:05:50.427Z,1017.16
2018-08-12T05:06:50.453Z,1017.17
2018-08-12T05:07:50.419Z,1017.15
2018-08-12T05:08:50.396Z,1017.16
2018-08-12T05:09:50.324Z,1017.14
2018-08-12T05:10:50.301Z,1017.11
2018-08-12T05:11:50.267Z,1017.09
2018-08-12T05:12:50.294Z,1017.08
2018-08-12T05:13:50.252Z,1017.07
2018-08-12T05:14:50.187Z,1017.04
2018-08-12T05:15:50.156Z,1017.01
2018-08-12T05:16:50.128Z,1017.01
2018-08-12T05:17:50.157Z,1017.01
2018-08-12T05:18:50.084Z,1016.97
2018-08-12T05:19:50.575Z,1017.03
2018-08-12T05:20:50.069Z,1016.98
2018-08-12T05:21:49.999Z,1016.98
2018-08-12T05:22:49.982Z,1016.97
2018-08-12T05:23:49.997Z,1016.98
2018-08-12T05:24:49.917Z,1016.92
2018-08-12T05:25:49.946Z,1016.95
2018-08-12T05:26:49.861Z,1016.94
2018-08-12T05:27:49.843Z,1016.94
2018-08-12T05:28:49.808Z,1016.91
2018-08-12T05:29:49.793Z,1016.89
2018-08-12T05:30:49.805Z,1016.85
2018-08-12T05:31:49.735Z,1016.87
2018-08-12T05:32:49.712Z,1016.87
2018-08-12T05:33:49.729Z,1016.87
2018-08-12T05:34:49.652Z,1016.84
2018-08-12T05:35:49.631Z,1016.88
2018-08-12T05:36:49.613Z,1016.85
2018-08-12T05:37:49.583Z,1016.87
2018-08-12T05:38:49.621Z,1016.86
2018-08-12T05:39:49.556Z,1016.85
2018-08-12T05:40:49.519Z,1016.83
2018-08-12T05:41:49.544Z,1016.84
2018-08-12T05:42:49.444Z,1016.81
2018-08-12T05:43:49.578Z,1016.81
2018-08-12T05:44:49.397Z,1016.80
2018-08-12T05:45:49.365Z,1016.75
2018-08-12T05:46:49.342Z,1016.74
2018-08-12T05:47:49.354Z,1016.76
2018-08-12T05:48:49.296Z,1016.70
2018-08-12T05:49:49.267Z,1016.74
2018-08-12T05:50:49.235Z,1016.73
2018-08-12T05:51:49.222Z,1016.70
2018-08-12T05:52:49.236Z,1016.72
2018-08-12T05:53:49.158Z,1016.73
2018-08-12T05:54:49.180Z,1016.69
2018-08-12T05:55:49.109Z,1016.72
2018-08-12T05:56:49.082Z,1016.67
2018-08-12T05:57:49.154Z,1016.69
2018-08-12T05:58:49.068Z,1016.67
2018-08-12T05:59:49.003Z,1016.67
2018-08-12T06:00:48.981Z,1016.65
2018-08-12T06:01:48.957Z,1016.67
2018-08-12T06:02:49.092Z,1016.64
2018-08-12T06:03:48.907Z,1016.65
2018-08-12T06:04:48.884Z,1016.63
2018-08-12T06:05:48.909Z,1016.63
2018-08-12T06:06:48.826Z,1016.58
2018-08-12T06:07:48.851Z,1016.58
2018-08-12T06:08:48.781Z,1016.57
2018-08-12T06:09:48.746Z,1016.56
2018-08-12T06:10:48.783Z,1016.59
2018-08-12T06:11:48.700Z,1016.58
2018-08-12T06:12:48.679Z,1016.60
2018-08-12T06:13:48.651Z,1016.55
2018-08-12T06:14:48.626Z,1016.54
2018-08-12T06:15:48.669Z,1016.51
2018-08-12T06:16:48.636Z,1016.51
2018-08-12T06:17:48.555Z,1016.52
2018-08-12T06:18:48.529Z,1016.51
2018-08-12T06:19:48.502Z,1016.50
2018-08-12T06:20:48.482Z,1016.50
2018-08-12T06:21:48.521Z,1016.50
2018-08-12T06:22:48.426Z,1016.49
2018-08-12T06:23:48.411Z,1016.49
2018-08-12T06:24:48.385Z,1016.47
2018-08-12T06:25:48.383Z,1016.47
2018-08-12T06:26:48.392Z,1016.46
2018-08-12T06:27:48.305Z,1016.50
2018-08-12T06:28:48.280Z,1016.49
2018-08-12T06:29:48.265Z,1016.47
2018-08-12T06:30:48.231Z,1016.46
2018-08-12T06:31:48.277Z,1016.44
2018-08-12T06:32:48.179Z,1016.46
2018-08-12T06:33:48.162Z,1016.47
2018-08-12T06:34:48.144Z,1016.45
2018-08-12T06:35:48.124Z,1016.42
2018-08-12T06:36:48.155Z,1016.44
2018-08-12T06:37:48.188Z,1016.44
2018-08-12T06:38:48.041Z,1016.44
2018-08-12T06:39:48.112Z,1016.44
2018-08-12T06:40:48.035Z,1016.44
2018-08-12T06:41:47.958Z,1016.47
2018-08-12T06:42:47.987Z,1016.47
2018-08-12T06:43:47.915Z,1016.48
2018-08-12T06:44:47.889Z,1016.47
2018-08-12T06:45:47.922Z,1016.50
2018-08-12T06:46:47.836Z,1016.48
2018-08-12T06:47:47.885Z,1016.50
2018-08-12T06:48:47.799Z,1016.51
2018-08-12T06:49:47.763Z,1016.52
2018-08-12T06:50:47.752Z,1016.48
2018-08-12T06:51:47.838Z,1016.46
2018-08-12T06:52:47.705Z,1016.52
2018-08-12T06:53:47.717Z,1016.45
2018-08-12T06:54:47.651Z,1016.46
2018-08-12T06:55:47.692Z,1016.47
2018-08-12T06:56:47.595Z,1016.45
2018-08-12T06:57:47.574Z,1016.45
2018-08-12T06:58:47.600Z,1016.47
2018-08-12T06:59:47.528Z,1016.45
2018-08-12T07:00:47.500Z,1016.42
2018-08-12T07:01:47.518Z,1016.40
2018-08-12T07:02:47.479Z,1016.42
2018-08-12T07:03:47.481Z,1016.37
2018-08-12T07:04:47.407Z,1016.31
2018-08-12T07:05:47.441Z,1016.37
2018-08-12T07:06:47.356Z,1016.36
2018-08-12T07:07:47.339Z,1016.39
2018-08-12T07:08:47.310Z,1016.34
2018-08-12T07:09:47.284Z,1016.34
2018-08-12T07:10:47.318Z,1016.38
2018-08-12T07:11:47.240Z,1016.29
2018-08-12T07:12:47.212Z,1016.31
2018-08-12T07:13:47.192Z,1016.28
2018-08-12T07:14:47.206Z,1016.31
2018-08-12T07:15:47.147Z,1016.28
2018-08-12T07:16:47.123Z,1016.28
2018-08-12T07:17:47.107Z,1016.26
2018-08-12T07:18:47.080Z,1016.24
2018-08-12T07:19:47.165Z,1016.22
2018-08-12T07:20:47.029Z,1016.23
2018-08-12T07:21:47.148Z,1016.24
2018-08-12T07:22:46.996Z,1016.24
2018-08-12T07:23:46.950Z,1016.24
2018-08-12T07:24:47.027Z,1016.19
2018-08-12T07:25:46.911Z,1016.24
2018-08-12T07:26:46.880Z,1016.23
2018-08-12T07:27:46.869Z,1016.20
2018-08-12T07:28:46.878Z,1016.21
2018-08-12T07:29:46.807Z,1016.22
2018-08-12T07:30:46.785Z,1016.20
2018-08-12T07:31:46.815Z,1016.21
2018-08-12T07:32:46.810Z,1016.22
2018-08-12T07:33:46.728Z,1016.24
2018-08-12T07:34:46.693Z,1016.24
2018-08-12T07:35:46.722Z,1016.25
2018-08-12T07:36:46.665Z,1016.23
2018-08-12T07:37:46.627Z,1016.21
2018-08-12T07:38:46.708Z,1016.24
2018-08-12T07:39:46.616Z,1016.25
2018-08-12T07:40:46.626Z,1016.22
2018-08-12T07:41:46.535Z,1016.24
2018-08-12T07:42:46.506Z,1016.23
2018-08-12T07:43:46.483Z,1016.19
2018-08-12T07:44:46.458Z,1016.17
2018-08-12T07:45:46.546Z,1016.12
2018-08-12T07:46:46.448Z,1016.12
2018-08-12T07:47:46.393Z,1016.14
2018-08-12T07:48:46.428Z,1016.09
2018-08-12T07:49:46.396Z,1016.13
2018-08-12T07:50:46.324Z,1016.10
2018-08-12T07:51:46.353Z,1016.11
2018-08-12T07:52:46.287Z,1016.12
2018-08-12T07:53:46.249Z,1016.09
2018-08-12T07:54:46.228Z,1016.11
2018-08-12T07:55:46.233Z,1016.15
2018-08-12T07:56:46.245Z,1016.09
2018-08-12T07:57:46.166Z,1016.06
2018-08-12T07:58:46.138Z,1016.06
2018-08-12T07:59:46.112Z,1016.05
2018-08-12T08:00:46.092Z,1016.04
2018-08-12T08:01:46.140Z,1016.06
2018-08-12T08:02:46.049Z,1016.02
2018-08-12T08:03:46.024Z,1016.06
2018-08-12T08:04:45.999Z,1016.06
2018-08-12T08:05:45.986Z,1016.04
2018-08-12T08:06:46.067Z,1016.05
2018-08-12T08:07:45.937Z,1016.03
2018-08-12T08:08:45.905Z,1016.03
2018-08-12T08:09:45.892Z,1016.01
2018-08-12T08:10:45.863Z,1016.01
2018-08-12T08:11:45.906Z,1016.00
2018-08-12T08:12:46.520Z,1016.00
2018-08-12T08:13:45.826Z,1015.98
2018-08-12T08:14:45.784Z,1016.04
2018-08-12T08:15:45.755Z,1016.05
2018-08-12T08:16:45.781Z,1016.05
2018-08-12T08:17:45.713Z,1016.02
2018-08-12T08:18:45.689Z,1015.97
2018-08-12T08:19:45.667Z,1015.98
2018-08-12T08:20:45.688Z,1016.01
2018-08-12T08:21:45.619Z,1015.95
2018-08-12T08:22:45.598Z,1016.00
2018-08-12T08:23:45.616Z,1016.02
2018-08-12T08:24:45.599Z,1015.99
2018-08-12T08:25:45.545Z,1015.94
2018-08-12T08:26:45.508Z,1015.98
2018-08-12T08:27:45.492Z,1015.92
2018-08-12T08:28:45.510Z,1015.99
2018-08-12T08:29:46.022Z,1015.96
2018-08-12T08:30:45.420Z,1015.98
2018-08-12T08:31:45.573Z,1015.97
2018-08-12T08:32:45.377Z,1015.96
2018-08-12T08:33:45.403Z,1015.92
2018-08-12T08:34:45.386Z,1015.95
2018-08-12T08:35:45.310Z,1015.90
2018-08-12T08:36:45.330Z,1015.91
2018-08-12T08:37:45.321Z,1015.89
2018-08-12T08:38:45.244Z,1015.88
2018-08-12T08:39:45.226Z,1015.87
2018-08-12T08:40:45.204Z,1015.87
2018-08-12T08:41:45.184Z,1015.85
2018-08-12T08:42:45.205Z,1015.88
2018-08-12T08:43:45.139Z,1015.87
2018-08-12T08:44:45.116Z,1015.86
2018-08-12T08:45:45.095Z,1015.90
2018-08-12T08:46:45.074Z,1015.85
2018-08-12T08:47:45.094Z,1015.84
2018-08-12T08:48:45.087Z,1015.84
2018-08-12T08:49:45.006Z,1015.81
2018-08-12T08:50:45.091Z,1015.78
2018-08-12T08:51:44.967Z,1015.81
2018-08-12T08:52:44.946Z,1015.74
2018-08-12T08:53:44.961Z,1015.77
2018-08-12T08:54:44.895Z,1015.80
2018-08-12T08:55:44.945Z,1015.81
2018-08-12T08:56:44.851Z,1015.77
2018-08-12T08:57:44.833Z,1015.75
2018-08-12T08:58:44.865Z,1015.84
2018-08-12T08:59:44.830Z,1015.83
2018-08-12T09:00:44.767Z,1015.79
2018-08-12T09:01:44.753Z,1015.79
2018-08-12T09:02:44.766Z,1015.73
2018-08-12T09:03:44.704Z,1015.71
2018-08-12T09:04:44.684Z,1015.78
2018-08-12T09:05:44.705Z,1015.77
2018-08-12T09:06:44.638Z,1015.75
2018-08-12T09:07:44.629Z,1015.77
2018-08-12T09:08:44.874Z,1015.75
2018-08-12T09:09:44.613Z,1015.73
2018-08-12T09:10:44.547Z,1015.72
2018-08-12T09:11:44.526Z,1015.70
2018-08-12T09:12:44.502Z,1015.69
2018-08-12T09:13:44.481Z,1015.65
2018-08-12T09:14:44.515Z,1015.65
2018-08-12T09:15:44.442Z,1015.63
2018-08-12T09:16:44.420Z,1015.65
2018-08-12T09:17:44.397Z,1015.62
2018-08-12T09:18:44.380Z,1015.58
2018-08-12T09:19:44.403Z,1015.56
2018-08-12T09:20:44.382Z,1015.52
2018-08-12T09:21:44.314Z,1015.48
2018-08-12T09:22:44.292Z,1015.51
2018-08-12T09:23:44.272Z,1015.53
2018-08-12T09:24:44.256Z,1015.57
2018-08-12T09:25:44.272Z,1015.59
2018-08-12T09:26:44.207Z,1015.50
2018-08-12T09:27:44.183Z,1015.43
2018-08-12T09:28:44.202Z,1015.44
2018-08-12T09:29:44.143Z,1015.43
2018-08-12T09:30:44.164Z,1015.36
2018-08-12T09:31:44.102Z,1015.39
2018-08-12T09:32:44.077Z,1015.41
2018-08-12T09:33:44.057Z,1015.39
2018-08-12T09:34:44.049Z,1015.35
2018-08-12T09:35:44.064Z,1015.38
2018-08-12T09:36:44.040Z,1015.36
2018-08-12T09:37:43.975Z,1015.43
2018-08-12T09:38:43.951Z,1015.40
2018-08-12T09:39:43.940Z,1015.41
2018-08-12T09:40:43.957Z,1015.40
2018-08-12T09:41:43.933Z,1015.37
2018-08-12T09:42:43.872Z,1015.39
2018-08-12T09:43:43.862Z,1015.44
2018-08-12T09:44:43.832Z,1015.41
2018-08-12T09:45:43.818Z,1015.38
2018-08-12T09:46:43.837Z,1015.34
2018-08-12T09:47:43.773Z,1015.33
2018-08-12T09:48:43.754Z,1015.33
2018-08-12T09:49:43.730Z,1015.27
2018-08-12T09:50:43.706Z,1015.26
2018-08-12T09:51:43.845Z,1015.21
2018-08-12T09:52:43.708Z,1015.21
2018-08-12T09:53:43.644Z,1015.17
2018-08-12T09:54:43.623Z,1015.17
2018-08-12T09:55:43.602Z,1015.20
2018-08-12T09:56:43.633Z,1015.16
2018-08-12T09:57:43.633Z,1015.15
2018-08-12T09:58:43.547Z,1015.15
2018-08-12T09:59:43.526Z,1015.13
2018-08-12T10:00:43.495Z,1015.20
2018-08-12T10:01:43.488Z,1015.14
2018-08-12T10:02:43.515Z,1015.13
2018-08-12T10:03:43.437Z,1015.11
2018-08-12T10:04:43.422Z,1015.19
2018-08-12T10:05:43.400Z,1015.11
2018-08-12T10:06:43.395Z,1015.05
2018-08-12T10:07:43.433Z,1015.04
2018-08-12T10:08:43.351Z,1015.05
2018-08-12T10:09:43.310Z,1015.02
2018-08-12T10:10:43.300Z,1014.95
2018-08-12T10:11:43.279Z,1014.95
2018-08-12T10:12:43.329Z,1014.90
2018-08-12T10:13:43.231Z,1014.90
2018-08-12T10:14:43.225Z,1014.85
2018-08-12T10:15:43.192Z,1014.87
2018-08-12T10:16:43.172Z,1014.78
2018-08-12T10:17:43.213Z,1014.79
2018-08-12T10:18:43.144Z,1014.75
2018-08-12T10:19:43.109Z,1014.82
2018-08-12T10:20:43.089Z,1014.78
2018-08-12T10:21:43.077Z,1014.83
2018-08-12T10:22:43.098Z,1014.79
2018-08-12T10:23:43.101Z,1014.77
2018-08-12T10:24:43.015Z,1014.87
2018-08-12T10:25:42.991Z,1014.78
2018-08-12T10:26:42.968Z,1014.80
2018-08-12T10:27:42.958Z,1014.71
2018-08-12T10:28:42.977Z,1014.76
2018-08-12T10:29:42.913Z,1014.70
2018-08-12T10:30:42.890Z,1014.69
2018-08-12T10:31:42.877Z,1014.64
2018-08-12T10:32:42.848Z,1014.65
2018-08-12T10:33:42.878Z,1014.67
2018-08-12T10:34:42.905Z,1014.67
2018-08-12T10:35:42.790Z,1014.65
2018-08-12T10:36:42.775Z,1014.61
2018-08-12T10:37:42.749Z,1014.67
2018-08-12T10:38:42.785Z,1014.65
2018-08-12T10:39:42.752Z,1014.56
2018-08-12T10:40:42.686Z,1014.59
2018-08-12T10:41:42.665Z,1014.59
2018-08-12T10:42:42.646Z,1014.55
2018-08-12T10:43:42.647Z,1014.54
2018-08-12T10:44:42.651Z,1014.48
2018-08-12T10:45:42.594Z,1014.51
2018-08-12T10:46:42.568Z,1014.45
2018-08-12T10:47:42.561Z,1014.42
2018-08-12T10:48:42.560Z,1014.50
2018-08-12T10:49:42.722Z,1014.46
2018-08-12T10:50:42.509Z,1014.46
2018-08-12T10:51:42.474Z,1014.46
2018-08-12T10:52:42.454Z,1014.49
2018-08-12T10:53:42.474Z,1014.51
2018-08-12T10:54:42.421Z,1014.49
2018-08-12T10:55:42.424Z,1014.44
2018-08-12T10:56:42.373Z,1014.46
2018-08-12T10:57:42.352Z,1014.38
2018-08-12T10:58:42.745Z,1014.36
2018-08-12T10:59:42.312Z,1014.37
2018-08-12T11:00:42.291Z,1014.42
2018-08-12T11:01:42.274Z,1014.38
2018-08-12T11:02:42.256Z,1014.37
2018-08-12T11:03:42.280Z,1014.38
2018-08-12T11:04:42.216Z,1014.31
2018-08-12T11:05:42.191Z,1014.33
2018-08-12T11:06:42.185Z,1014.29
2018-08-12T11:07:42.216Z,1014.29
2018-08-12T11:08:42.188Z,1014.29
2018-08-12T11:09:42.114Z,1014.27
2018-08-12T11:10:42.100Z,1014.25
2018-08-12T11:11:42.078Z,1014.21
2018-08-12T11:12:42.172Z,1014.25
2018-08-12T11:13:42.084Z,1014.29
2018-08-12T11:14:42.056Z,1014.26
2018-08-12T11:15:42.000Z,1014.21
2018-08-12T11:16:41.986Z,1014.21
2018-08-12T11:17:41.959Z,1014.16
2018-08-12T11:18:41.989Z,1014.21
2018-08-12T11:19:41.919Z,1014.20
2018-08-12T11:20:41.906Z,1014.15
2018-08-12T11:21:41.942Z,1014.13
2018-08-12T11:22:41.871Z,1014.13
2018-08-12T11:23:41.850Z,1014.09
2018-08-12T11:24:41.874Z,1014.13
2018-08-12T11:25:41.810Z,1014.15
2018-08-12T11:26:41.788Z,1014.10
2018-08-12T11:27:41.768Z,1014.06
2018-08-12T11:28:41.795Z,1014.09
2018-08-12T11:29:41.792Z,1014.09
2018-08-12T11:30:41.713Z,1014.10
2018-08-12T11:31:41.694Z,1014.04
2018-08-12T11:32:41.679Z,1014.02
2018-08-12T11:33:41.657Z,1013.98
2018-08-12T11:34:41.732Z,1013.98
2018-08-12T11:35:41.612Z,1013.96
2018-08-12T11:36:41.596Z,1013.94
2018-08-12T11:37:41.698Z,1014.01
2018-08-12T11:38:41.563Z,1014.06
2018-08-12T11:39:41.537Z,1014.00
2018-08-12T11:40:41.565Z,1014.08
2018-08-12T11:41:41.501Z,1014.03
2018-08-12T11:42:41.484Z,1013.94
2018-08-12T11:43:41.460Z,1013.96
2018-08-12T11:44:41.460Z,1013.94
2018-08-12T11:45:41.472Z,1013.97
2018-08-12T11:46:41.401Z,1013.88
2018-08-12T11:47:41.442Z,1013.87
2018-08-12T11:48:41.367Z,1013.85
2018-08-12T11:49:41.347Z,1013.82
2018-08-12T11:50:41.334Z,1013.75
2018-08-12T11:51:41.308Z,1013.84
2018-08-12T11:52:41.341Z,1013.81
2018-08-12T11:53:41.267Z,1013.81
2018-08-12T11:54:41.260Z,1013.75
2018-08-12T11:55:41.224Z,1013.73
2018-08-12T11:56:41.207Z,1013.73
2018-08-12T11:57:41.238Z,1013.76
2018-08-12T11:58:41.172Z,1013.75
2018-08-12T11:59:41.148Z,1013.73
2018-08-12T12:00:41.135Z,1013.63
2018-08-12T12:01:41.112Z,1013.64
2018-08-12T12:02:41.132Z,1013.67
2018-08-12T12:03:41.071Z,1013.67
2018-08-12T12:04:41.059Z,1013.70
2018-08-12T12:05:41.073Z,1013.66